.
WxDataArchive / Data Records for 2013-09-17
2013-09-16 September 2013 2013-09-18

Data Records for Tuesday, 17 September 2013

Time	Temp	Chill	HIndex	Humid	Dewpt	 Wind 	HiWind	WindDir	Rain 	Barom 
-----	----	-----	------	-----	-----	------	------	-------	-----	----- 
00:00	50.2	50.2	50.2	84	45.6	0	1	112	0.00	30.325 
00:05	50.2	50.2	50.2	84	45.6	0	1	112	0.00	30.325 
00:10	50.2	50.2	50.2	84	45.6	0	1	112	0.00	30.325 
00:15	50.1	50.1	50.1	84	45.5	0	1	112	0.00	30.327 
00:20	50.1	50.1	50.1	85	45.8	0	2	112	0.00	30.327 
00:25	50.2	50.2	50.2	84	45.6	0	2	112	0.00	30.327 
00:30	50.4	50.4	50.4	84	45.7	0	2	112	0.00	30.328 
00:35	50.2	50.2	50.2	84	45.6	0	2	112	0.00	30.328 
00:40	50.2	50.2	50.2	84	45.6	0	1	112	0.00	30.328 
00:45	50.1	50.1	50.1	84	45.5	0	1	112	0.00	30.329 
00:50	50.1	50.1	50.1	84	45.5	0	1	112	0.00	30.329 
00:55	49.9	49.9	49.9	84	45.3	0	2	112	0.00	30.329 
01:00	49.8	49.8	49.8	84	45.2	0	2	112	0.00	30.332 
01:05	49.8	49.8	49.8	84	45.2	0	1	112	0.00	30.332 
01:10	49.6	49.6	49.6	85	45.3	0	1	112	0.00	30.332 
01:15	49.5	49.5	49.5	85	45.2	0	2	112	0.00	30.335 
01:20	49.4	49.4	49.4	85	45.1	0	1	112	0.00	30.335 
01:25	49.2	49.2	49.2	86	45.2	0	1	112	0.00	30.335 
01:30	49.1	49.1	49.1	86	45.1	0	0	---	0.00	30.341 
01:35	48.8	48.8	48.8	86	44.8	0	0	---	0.00	30.341 
01:40	48.6	48.6	48.6	86	44.6	0	1	112	0.00	30.341 
01:45	48.5	48.5	48.5	86	44.5	0	0	---	0.00	30.344 
01:50	48.5	48.5	48.5	87	44.8	0	1	112	0.00	30.344 
01:55	48.3	48.3	48.3	88	44.9	0	0	---	0.00	30.344 
02:00	48.3	48.3	48.3	88	44.9	0	1	112	0.00	30.347 
02:05	48.2	48.2	48.2	88	44.8	0	1	112	0.00	30.347 
02:10	48.2	48.2	48.2	88	44.8	0	0	---	0.00	30.347 
02:15	48.2	48.2	48.2	88	44.8	0	0	---	0.00	30.354 
02:20	48.0	48.0	48.0	89	44.9	0	1	112	0.00	30.354 
02:25	47.9	47.9	47.9	89	44.8	0	1	112	0.00	30.354 
02:30	47.9	47.9	47.9	89	44.8	0	1	112	0.00	30.355 
02:35	47.7	47.7	47.7	89	44.6	0	1	112	0.00	30.355 
02:40	47.7	47.7	47.7	89	44.6	0	1	112	0.00	30.355 
02:45	47.6	47.6	47.6	89	44.5	0	1	112	0.00	30.350 
02:50	47.6	47.6	47.6	90	44.8	0	1	112	0.00	30.350 
02:55	47.4	47.4	47.4	90	44.6	0	1	112	0.00	30.350 
03:00	47.4	47.4	47.4	90	44.6	0	1	112	0.00	30.356 
03:05	47.3	47.3	47.3	90	44.5	0	2	112	0.00	30.356 
03:10	47.3	47.3	47.3	90	44.5	0	1	112	0.00	30.356 
03:15	47.1	47.1	47.1	90	44.3	0	0	---	0.00	30.352 
03:20	47.0	47.0	47.0	90	44.2	0	0	---	0.00	30.352 
03:25	47.0	47.0	47.0	90	44.2	0	1	112	0.00	30.352 
03:30	46.8	46.8	46.8	91	44.3	0	1	112	0.00	30.352 
03:35	46.8	46.8	46.8	91	44.3	0	0	---	0.00	30.352 
03:40	46.7	46.7	46.7	91	44.2	0	0	---	0.00	30.352 
03:45	46.5	46.5	46.5	91	44.0	0	0	---	0.00	30.352 
03:50	46.4	46.4	46.4	90	43.6	0	0	---	0.00	30.352 
03:55	46.1	46.1	46.1	91	43.6	0	0	---	0.00	30.352 
04:00	46.0	46.0	46.0	91	43.5	0	0	---	0.00	30.358 
04:05	45.8	45.8	45.8	91	43.3	0	0	---	0.00	30.358 
04:10	45.7	45.7	45.7	91	43.2	0	0	---	0.00	30.358 
04:15	45.5	45.5	45.5	91	43.0	0	0	---	0.00	30.355 
04:20	45.4	45.4	45.4	91	42.9	0	0	---	0.00	30.355 
04:25	45.5	45.5	45.5	91	43.0	0	0	---	0.00	30.355 
04:30	45.5	45.5	45.5	92	43.3	0	1	112	0.00	30.352 
04:35	45.5	45.5	45.5	92	43.3	0	0	---	0.00	30.352 
04:40	45.7	45.7	45.7	92	43.5	0	2	112	0.00	30.352 
04:45	45.5	45.5	45.5	92	43.3	0	1	112	0.00	30.350 
04:50	45.7	45.7	45.7	92	43.5	0	1	112	0.00	30.350 
04:55	45.7	45.7	45.7	92	43.5	0	1	112	0.00	30.350 
05:00	45.5	45.5	45.5	92	43.3	0	1	112	0.00	30.347 
05:05	45.4	45.4	45.4	92	43.2	0	1	112	0.00	30.347 
05:10	45.4	45.4	45.4	93	43.5	0	1	112	0.00	30.347 
05:15	45.2	45.2	45.2	93	43.3	0	0	---	0.00	30.350 
05:20	45.2	45.2	45.2	93	43.3	0	0	---	0.00	30.350 
05:25	45.2	45.2	45.2	93	43.3	0	0	---	0.00	30.350 
05:30	45.1	45.1	45.1	93	43.2	0	0	---	0.00	30.352 
05:35	44.9	44.9	44.9	93	43.0	0	0	---	0.00	30.352 
05:40	44.9	44.9	44.9	93	43.0	0	0	---	0.00	30.352 
05:45	44.9	44.9	44.9	93	43.0	0	0	---	0.00	30.349 
05:50	44.8	44.8	44.8	93	42.9	0	1	112	0.00	30.349 
05:55	44.8	44.8	44.8	93	42.9	0	1	112	0.00	30.349 
06:00	44.8	44.8	44.8	93	42.9	0	2	112	0.00	30.346 
06:05	44.8	44.8	44.8	93	42.9	0	2	112	0.00	30.346 
06:10	44.8	44.8	44.8	93	42.9	1	3	112	0.00	30.346 
06:15	44.8	44.8	44.8	93	42.9	0	1	112	0.00	30.349 
06:20	44.6	44.6	44.6	93	42.7	0	2	112	0.00	30.349 
06:25	44.5	44.5	44.5	93	42.6	0	1	112	0.00	30.349 
06:30	44.5	44.5	44.5	93	42.6	0	1	112	0.00	30.353 
06:35	44.3	44.3	44.3	93	42.4	0	0	---	0.00	30.353 
06:40	44.2	44.2	44.2	93	42.3	0	0	---	0.00	30.353 
06:45	44.1	44.1	44.1	93	42.2	0	0	---	0.00	30.350 
06:50	43.9	43.9	43.9	93	42.0	0	0	---	0.00	30.350 
06:55	43.9	43.9	43.9	93	42.0	0	0	---	0.00	30.350 
07:00	43.8	43.8	43.8	93	41.9	0	1	112	0.00	30.350 
07:05	43.6	43.6	43.6	93	41.7	0	1	112	0.00	30.350 
07:10	43.6	43.6	43.6	93	41.7	0	0	---	0.00	30.350 
07:15	43.6	43.6	43.6	94	42.0	0	1	112	0.00	30.350 
07:20	43.8	43.8	43.8	94	42.2	0	3	112	0.00	30.350 
07:25	43.9	43.9	43.9	94	42.3	0	1	112	0.00	30.350 
07:30	43.9	43.9	43.9	94	42.3	0	3	112	0.00	30.352 
07:35	43.9	43.9	43.9	94	42.3	0	2	112	0.00	30.352 
07:40	43.9	43.9	43.9	93	42.0	0	2	112	0.00	30.352 
07:45	43.9	43.9	43.9	93	42.0	0	2	112	0.00	30.354 
07:50	43.9	43.9	43.9	93	42.0	0	3	112	0.00	30.354 
07:55	43.9	43.9	43.9	93	42.0	0	2	112	0.00	30.354 
08:00	44.1	44.1	44.1	93	42.2	0	3	112	0.00	30.355 
08:05	44.2	44.2	44.2	93	42.3	0	1	112	0.00	30.355 
08:10	44.3	44.3	44.3	93	42.4	0	3	112	0.00	30.355 
08:15	44.5	44.5	44.5	93	42.6	1	4	112	0.00	30.358 
08:20	44.6	44.6	44.6	93	42.7	0	2	112	0.00	30.358 
08:25	44.8	44.8	44.8	92	42.6	1	5	112	0.00	30.358 
08:30	45.1	45.1	45.1	92	42.9	0	2	112	0.00	30.362 
08:35	45.7	45.7	45.7	92	43.5	1	3	112	0.00	30.362 
08:40	46.1	46.1	46.1	91	43.6	0	2	112	0.00	30.362 
08:45	46.4	46.4	46.4	90	43.6	0	2	112	0.00	30.363 
08:50	46.5	46.5	46.5	90	43.7	1	2	112	0.00	30.363 
08:55	46.8	46.8	46.8	90	44.0	1	4	112	0.00	30.363 
09:00	47.0	47.0	47.0	89	43.9	1	5	112	0.00	30.363 
09:05	47.1	47.1	47.1	89	44.0	1	3	112	0.00	30.363 
09:10	47.4	47.4	47.4	89	44.3	1	3	112	0.00	30.363 
09:15	47.6	47.6	47.6	88	44.2	1	5	112	0.00	30.364 
09:20	47.9	47.9	47.9	88	44.5	1	4	112	0.00	30.364 
09:25	48.3	48.3	48.3	88	44.9	0	2	112	0.00	30.364 
09:30	48.8	48.8	48.8	88	45.4	1	3	112	0.00	30.361 
09:35	49.2	49.2	49.2	88	45.8	1	3	112	0.00	30.361 
09:40	49.5	49.5	49.5	87	45.8	1	5	112	0.00	30.361 
09:45	49.8	49.8	49.8	87	46.1	1	2	112	0.00	30.364 
09:50	50.4	50.4	50.4	87	46.7	1	4	112	0.00	30.364 
09:55	50.8	50.8	50.8	86	46.8	1	4	112	0.00	30.364 
10:00	51.3	51.3	51.3	85	46.9	1	5	112	0.00	30.363 
10:05	51.9	51.9	51.9	84	47.2	2	4	90	0.00	30.363 
10:10	52.6	52.6	52.6	84	47.9	1	4	90	0.00	30.363 
10:15	53.5	53.5	53.5	82	48.1	1	5	68	0.00	30.362 
10:20	54.4	54.4	54.4	81	48.7	1	5	112	0.00	30.362 
10:25	55.3	55.3	55.3	79	48.9	1	3	112	0.00	30.362 
10:30	56.2	56.2	56.2	77	49.1	1	4	112	0.00	30.359 
10:35	56.7	56.7	56.7	77	49.6	1	4	68	0.00	30.359 
10:40	57.2	57.2	57.2	75	49.3	2	4	90	0.00	30.359 
10:45	57.8	57.8	57.8	74	49.6	1	3	90	0.00	30.357 
10:50	58.4	58.4	58.4	73	49.8	1	5	90	0.00	30.357 
10:55	58.9	58.9	58.9	72	49.9	1	5	45	0.00	30.357 
11:00	59.3	59.3	59.3	69	49.1	1	5	112	0.00	30.357 
11:05	59.5	59.5	59.5	70	49.7	2	5	90	0.00	30.357 
11:10	59.5	59.5	59.5	69	49.3	2	5	90	0.00	30.357 
11:15	59.8	59.8	59.8	69	49.6	2	4	90	0.00	30.359 
11:20	60.5	60.5	60.5	69	50.3	1	2	90	0.00	30.359 
11:25	61.3	61.3	61.3	67	50.2	1	3	90	0.00	30.359 
11:30	62.3	62.3	62.3	65	50.4	1	4	90	0.00	30.355 
11:35	62.4	62.4	62.4	65	50.5	2	5	90	0.00	30.355 
11:40	62.3	62.3	62.3	64	50.0	1	4	68	0.00	30.355 
11:45	62.7	62.7	62.7	63	49.9	0	2	68	0.00	30.347 
11:50	63.4	63.4	63.4	60	49.3	1	4	68	0.00	30.347 
11:55	63.5	63.5	63.5	60	49.4	1	4	68	0.00	30.347 
12:00	63.7	63.7	63.7	60	49.5	1	7	90	0.00	30.340 
12:05	63.9	63.9	63.9	59	49.3	2	4	112	0.00	30.340 
12:10	63.7	63.7	63.7	58	48.6	2	7	112	0.00	30.340 
12:15	63.5	63.5	63.5	58	48.5	1	7	68	0.00	30.334 
12:20	63.5	63.5	63.5	59	48.9	2	4	90	0.00	30.334 
12:25	63.9	63.9	63.9	59	49.3	1	4	90	0.00	30.334 
12:30	64.0	64.0	64.0	57	48.5	3	10	90	0.00	30.328 
12:35	64.0	64.0	64.0	56	48.0	2	5	90	0.00	30.328 
12:40	64.3	64.3	64.3	57	48.7	2	6	90	0.00	30.328 
12:45	64.5	64.5	64.5	56	48.4	2	4	90	0.00	30.324 
12:50	64.7	64.7	64.7	54	47.7	1	5	90	0.00	30.324 
12:55	65.5	65.5	65.5	55	48.9	1	3	90	0.00	30.324 
13:00	65.6	65.6	65.6	52	47.5	2	6	90	0.00	30.320 
13:05	65.6	65.6	65.6	54	48.5	0	3	90	0.00	30.320 
13:10	65.8	65.8	65.8	54	48.7	2	6	90	0.00	30.320 
13:15	65.8	65.8	65.8	53	48.2	2	4	90	0.00	30.314 
13:20	66.0	66.0	66.0	53	48.4	1	5	90	0.00	30.314 
13:25	66.1	66.1	66.1	51	47.4	2	6	90	0.00	30.314 
13:30	66.6	66.6	66.6	50	47.4	0	2	90	0.00	30.308 
13:35	67.3	67.3	67.3	49	47.5	1	3	90	0.00	30.308 
13:40	67.8	67.8	67.8	47	46.8	1	4	90	0.00	30.308 
13:45	67.9	67.9	67.9	50	48.6	1	4	112	0.00	30.294 
13:50	67.6	67.6	67.6	48	47.2	2	6	90	0.00	30.294 
13:55	67.4	67.4	67.4	49	47.6	1	9	68	0.00	30.294 
14:00	67.8	67.8	67.8	50	48.5	0	2	68	0.00	30.288 
14:05	68.1	68.1	68.1	46	46.5	1	4	68	0.00	30.288 
14:10	68.1	68.1	68.1	47	47.1	2	5	68	0.00	30.288 
14:15	68.3	68.3	68.3	47	47.3	1	5	68	0.00	30.279 
14:20	68.3	68.3	68.3	46	46.7	2	5	68	0.00	30.279 
14:25	68.3	68.3	68.3	45	46.1	2	5	68	0.00	30.279 
14:30	68.6	68.6	68.6	44	45.8	1	7	135	0.00	30.277 
14:35	68.8	68.8	68.8	43	45.4	2	5	112	0.00	30.277 
14:40	68.6	68.6	68.6	44	45.8	2	5	90	0.00	30.277 
14:45	68.4	68.4	68.4	43	45.0	1	3	90	0.00	30.266 
14:50	68.8	68.8	68.8	46	47.2	1	5	90	0.00	30.266 
14:55	69.1	69.1	69.1	42	45.0	2	6	90	0.00	30.266 
15:00	69.4	69.4	69.4	42	45.3	1	5	90	0.00	30.259 
15:05	69.3	69.3	69.3	39	43.3	2	7	68	0.00	30.259 
15:10	69.1	69.1	69.1	39	43.1	2	4	68	0.00	30.259 
15:15	68.9	68.9	68.9	42	44.9	1	4	90	0.00	30.254 
15:20	69.3	69.3	69.3	40	43.9	1	4	90	0.00	30.254 
15:25	69.8	69.8	69.8	40	44.4	0	2	90	0.00	30.254 
15:30	69.9	69.9	69.9	39	43.8	3	6	90	0.00	30.247 
15:35	69.6	69.6	69.6	40	44.2	1	6	90	0.00	30.247 
15:40	69.9	69.9	69.9	41	45.1	1	4	90	0.00	30.247 
15:45	69.8	69.8	69.8	39	43.7	2	5	90	0.00	30.242 
15:50	69.6	69.6	69.6	38	42.9	1	3	90	0.00	30.242 
15:55	69.4	69.4	69.4	37	42.0	2	5	90	0.00	30.242 
16:00	69.3	69.3	69.3	38	42.6	2	5	68	0.00	30.237 
16:05	69.3	69.3	69.3	39	43.3	2	6	68	0.00	30.237 
16:10	69.4	69.4	69.4	39	43.4	1	3	68	0.00	30.237 
16:15	69.4	69.4	69.4	39	43.4	1	4	68	0.00	30.229 
16:20	69.4	69.4	69.4	39	43.4	2	5	68	0.00	30.229 
16:25	69.4	69.4	69.4	39	43.4	2	5	90	0.00	30.229 
16:30	69.6	69.6	69.6	37	42.2	2	5	90	0.00	30.220 
16:35	69.8	69.8	69.8	39	43.7	2	4	90	0.00	30.220 
16:40	69.9	69.9	69.9	37	42.4	1	4	90	0.00	30.220 
16:45	70.1	70.1	70.1	36	41.9	2	6	68	0.00	30.211 
16:50	70.1	70.1	70.1	36	41.9	3	6	90	0.00	30.211 
16:55	69.9	69.9	69.9	37	42.4	1	5	90	0.00	30.211 
17:00	69.8	69.8	69.8	36	41.6	1	5	68	0.00	30.212 
17:05	69.8	69.8	69.8	37	42.3	1	2	68	0.00	30.212 
17:10	69.8	69.8	69.8	37	42.3	1	4	135	0.00	30.212 
17:15	69.6	69.6	69.6	36	41.5	1	5	90	0.00	30.210 
17:20	69.3	69.3	69.3	38	42.6	1	3	68	0.00	30.210 
17:25	69.1	69.1	69.1	38	42.4	1	6	68	0.00	30.210 
17:30	69.1	69.1	69.1	39	43.1	1	3	90	0.00	30.209 
17:35	68.9	68.9	68.9	39	42.9	1	3	90	0.00	30.209 
17:40	68.9	68.9	68.9	38	42.2	1	3	90	0.00	30.209 
17:45	68.8	68.8	68.8	39	42.8	2	4	90	0.00	30.200 
17:50	68.6	68.6	68.6	39	42.6	2	5	90	0.00	30.200 
17:55	68.6	68.6	68.6	41	44.0	1	5	90	0.00	30.200 
18:00	68.4	68.4	68.4	41	43.8	2	5	90	0.00	30.201 
18:05	68.3	68.3	68.3	42	44.3	1	3	90	0.00	30.201 
18:10	68.1	68.1	68.1	42	44.1	1	5	90	0.00	30.201 
18:15	67.9	67.9	67.9	42	44.0	1	3	90	0.00	30.203 
18:20	67.8	67.8	67.8	42	43.9	1	4	90	0.00	30.203 
18:25	67.6	67.6	67.6	42	43.7	1	4	90	0.00	30.203 
18:30	67.6	67.6	67.6	43	44.3	1	2	90	0.00	30.200 
18:35	67.4	67.4	67.4	44	44.7	1	2	90	0.00	30.200 
18:40	67.3	67.3	67.3	43	44.0	1	4	90	0.00	30.200 
18:45	67.1	67.1	67.1	43	43.8	1	2	90	0.00	30.202 
18:50	66.9	66.9	66.9	44	44.3	1	4	90	0.00	30.202 
18:55	66.8	66.8	66.8	44	44.2	1	3	90	0.00	30.202 
19:00	66.6	66.6	66.6	45	44.6	1	3	90	0.00	30.199 
19:05	66.4	66.4	66.4	46	45.0	0	2	90	0.00	30.199 
19:10	66.3	66.3	66.3	45	44.3	0	2	90	0.00	30.199 
19:15	66.0	66.0	66.0	46	44.6	0	2	90	0.00	30.199 
19:20	65.6	65.6	65.6	46	44.3	0	2	90	0.00	30.199 
19:25	65.5	65.5	65.5	46	44.2	0	1	90	0.00	30.199 
19:30	65.2	65.2	65.2	47	44.5	0	1	90	0.00	30.196 
19:35	64.8	64.8	64.8	47	44.1	0	1	90	0.00	30.196 
19:40	64.5	64.5	64.5	49	44.9	0	0	---	0.00	30.196 
19:45	64.3	64.3	64.3	50	45.3	0	0	---	0.00	30.198 
19:50	63.7	63.7	63.7	50	44.7	0	0	---	0.00	30.198 
19:55	63.2	63.2	63.2	51	44.8	0	0	---	0.00	30.198 
20:00	62.7	62.7	62.7	52	44.8	0	0	---	0.00	30.191 
20:05	62.3	62.3	62.3	54	45.4	0	0	---	0.00	30.191 
20:10	61.8	61.8	61.8	54	45.0	0	0	---	0.00	30.191 
20:15	61.5	61.5	61.5	54	44.7	0	0	---	0.00	30.192 
20:20	61.2	61.2	61.2	56	45.4	0	0	---	0.00	30.192 
20:25	60.9	60.9	60.9	58	46.0	0	0	---	0.00	30.192 
20:30	60.5	60.5	60.5	58	45.6	0	0	---	0.00	30.192 
20:35	60.2	60.2	60.2	57	44.9	0	0	---	0.00	30.192 
20:40	60.1	60.1	60.1	59	45.7	0	0	---	0.00	30.192 
20:45	59.9	59.9	59.9	59	45.5	0	0	---	0.00	30.195 
20:50	59.6	59.6	59.6	59	45.3	0	0	---	0.00	30.195 
20:55	59.6	59.6	59.6	58	44.8	0	1	90	0.00	30.195 
21:00	59.6	59.6	59.6	58	44.8	0	0	---	0.00	30.193 
21:05	59.6	59.6	59.6	58	44.8	0	0	---	0.00	30.193 
21:10	59.8	59.8	59.8	57	44.5	0	1	90	0.00	30.193 
21:15	60.1	60.1	60.1	56	44.3	0	1	90	0.00	30.188 
21:20	60.5	60.5	60.5	55	44.2	0	3	90	0.00	30.188 
21:25	60.7	60.7	60.7	56	44.9	0	1	90	0.00	30.188 
21:30	60.7	60.7	60.7	56	44.9	0	1	90	0.00	30.187 
21:35	60.5	60.5	60.5	56	44.7	1	2	90	0.00	30.187 
21:40	60.5	60.5	60.5	57	45.2	1	2	90	0.00	30.187 
21:45	60.4	60.4	60.4	57	45.1	1	4	90	0.00	30.188 
21:50	60.1	60.1	60.1	58	45.3	1	3	90	0.00	30.188 
21:55	59.8	59.8	59.8	59	45.4	1	3	90	0.00	30.188 
22:00	59.5	59.5	59.5	60	45.6	1	3	90	0.00	30.198 
22:05	59.2	59.2	59.2	62	46.2	1	2	90	0.00	30.198 
22:10	58.9	58.9	58.9	62	45.9	1	3	90	0.00	30.198 
22:15	58.6	58.6	58.6	64	46.5	0	1	90	0.00	30.193 
22:20	58.4	58.4	58.4	65	46.7	0	3	90	0.00	30.193 
22:25	58.1	58.1	58.1	66	46.8	0	1	90	0.00	30.193 
22:30	58.0	58.0	58.0	67	47.1	0	2	90	0.00	30.194 
22:35	57.8	57.8	57.8	68	47.3	0	2	90	0.00	30.194 
22:40	57.8	57.8	57.8	68	47.3	0	2	90	0.00	30.194 
22:45	57.6	57.6	57.6	68	47.1	0	1	90	0.00	30.194 
22:50	57.5	57.5	57.5	69	47.4	1	2	90	0.00	30.194 
22:55	57.3	57.3	57.3	69	47.2	1	3	90	0.00	30.194 
23:00	57.2	57.2	57.2	70	47.5	1	2	90	0.00	30.191 
23:05	57.0	57.0	57.0	70	47.3	0	1	90	0.00	30.191 
23:10	56.9	56.9	56.9	71	47.6	0	2	90	0.00	30.191 
23:15	56.7	56.7	56.7	71	47.4	0	3	90	0.00	30.185 
23:20	56.6	56.6	56.6	72	47.7	1	3	90	0.00	30.185 
23:25	56.5	56.5	56.5	73	47.9	1	2	90	0.00	30.185 
23:30	56.2	56.2	56.2	73	47.7	0	1	90	0.00	30.180 
23:35	56.0	56.0	56.0	74	47.8	0	1	90	0.00	30.180 
23:40	55.9	55.9	55.9	74	47.7	0	2	90	0.00	30.180 
23:45	55.7	55.7	55.7	75	47.9	1	2	90	0.00	30.176 
23:50	55.6	55.6	55.6	75	47.8	0	2	90	0.00	30.176 
23:55	55.4	55.4	55.4	76	48.0	0	1	90	0.00	30.176 

CoCoRaHS
IN-AL-39
A2 Web Hosting
Creative Commons License
GoDaddy
search engine by freefind advanced

loaded 2018-11-20 14:24:57 • last modified 2010-11-18 10:43:29
Privacy PolicyDisclaimer
• wx.awcolley.com is powered by PmWiki v.2002016 •
• all content (unless otherwise noted) © 2018 A W Colley